sensor_id;sensor_type;location;lat;lon;timestamp;P1;durP1;ratioP1;P2;durP2;ratioP2
6077;SDS011;3067;49.470;10.394;2024-01-06T00:01:19;3.40;;;3.20;;
6077;SDS011;3067;49.470;10.394;2024-01-06T00:03:46;3.90;;;3.60;;
6077;SDS011;3067;49.470;10.394;2024-01-06T00:06:13;4.20;;;3.90;;
6077;SDS011;3067;49.470;10.394;2024-01-06T00:08:40;4.70;;;4.10;;
6077;SDS011;3067;49.470;10.394;2024-01-06T00:11:07;3.70;;;3.40;;
6077;SDS011;3067;49.470;10.394;2024-01-06T00:13:35;4.77;;;3.10;;
6077;SDS011;3067;49.470;10.394;2024-01-06T00:16:04;3.43;;;3.00;;
6077;SDS011;3067;49.470;10.394;2024-01-06T00:18:31;5.07;;;2.93;;
6077;SDS011;3067;49.470;10.394;2024-01-06T00:20:58;3.63;;;2.43;;
6077;SDS011;3067;49.470;10.394;2024-01-06T00:23:25;5.33;;;2.97;;
6077;SDS011;3067;49.470;10.394;2024-01-06T00:25:52;6.30;;;2.53;;
6077;SDS011;3067;49.470;10.394;2024-01-06T00:28:19;3.50;;;2.50;;
6077;SDS011;3067;49.470;10.394;2024-01-06T00:30:46;5.53;;;2.20;;
6077;SDS011;3067;49.470;10.394;2024-01-06T00:33:15;2.80;;;2.60;;
6077;SDS011;3067;49.470;10.394;2024-01-06T00:35:42;2.30;;;2.20;;
6077;SDS011;3067;49.470;10.394;2024-01-06T00:38:09;2.40;;;2.20;;
6077;SDS011;3067;49.470;10.394;2024-01-06T00:40:36;6.00;;;2.10;;
6077;SDS011;3067;49.470;10.394;2024-01-06T00:43:04;1.80;;;1.70;;
6077;SDS011;3067;49.470;10.394;2024-01-06T00:45:31;2.47;;;1.60;;
6077;SDS011;3067;49.470;10.394;2024-01-06T00:47:58;2.30;;;2.20;;
6077;SDS011;3067;49.470;10.394;2024-01-06T00:50:26;3.53;;;1.70;;
6077;SDS011;3067;49.470;10.394;2024-01-06T00:52:53;3.60;;;1.63;;
6077;SDS011;3067;49.470;10.394;2024-01-06T00:55:21;2.10;;;1.83;;
6077;SDS011;3067;49.470;10.394;2024-01-06T00:57:48;4.30;;;1.97;;
6077;SDS011;3067;49.470;10.394;2024-01-06T01:00:16;2.60;;;2.10;;
6077;SDS011;3067;49.470;10.394;2024-01-06T01:02:44;2.30;;;1.70;;
6077;SDS011;3067;49.470;10.394;2024-01-06T01:05:11;8.23;;;1.70;;
6077;SDS011;3067;49.470;10.394;2024-01-06T01:07:39;8.73;;;1.87;;
6077;SDS011;3067;49.470;10.394;2024-01-06T01:10:06;2.77;;;2.10;;
6077;SDS011;3067;49.470;10.394;2024-01-06T01:12:35;2.43;;;1.77;;
6077;SDS011;3067;49.470;10.394;2024-01-06T01:15:02;1.60;;;1.50;;
6077;SDS011;3067;49.470;10.394;2024-01-06T01:17:29;3.17;;;1.87;;
6077;SDS011;3067;49.470;10.394;2024-01-06T01:19:56;2.03;;;1.70;;
6077;SDS011;3067;49.470;10.394;2024-01-06T01:22:23;2.90;;;1.60;;
6077;SDS011;3067;49.470;10.394;2024-01-06T01:24:52;2.07;;;1.90;;
6077;SDS011;3067;49.470;10.394;2024-01-06T01:27:19;2.73;;;1.63;;
6077;SDS011;3067;49.470;10.394;2024-01-06T01:29:46;5.93;;;1.77;;
6077;SDS011;3067;49.470;10.394;2024-01-06T01:32:17;2.00;;;1.83;;
6077;SDS011;3067;49.470;10.394;2024-01-06T01:34:44;4.40;;;1.90;;
6077;SDS011;3067;49.470;10.394;2024-01-06T01:37:11;1.90;;;1.80;;
6077;SDS011;3067;49.470;10.394;2024-01-06T01:39:38;3.97;;;1.60;;
6077;SDS011;3067;49.470;10.394;2024-01-06T01:42:07;2.00;;;1.33;;
6077;SDS011;3067;49.470;10.394;2024-01-06T01:44:34;1.90;;;1.73;;
6077;SDS011;3067;49.470;10.394;2024-01-06T01:47:02;8.63;;;1.47;;
6077;SDS011;3067;49.470;10.394;2024-01-06T01:49:31;1.87;;;1.70;;
6077;SDS011;3067;49.470;10.394;2024-01-06T01:51:58;2.80;;;1.50;;
6077;SDS011;3067;49.470;10.394;2024-01-06T01:54:26;2.77;;;1.53;;
6077;SDS011;3067;49.470;10.394;2024-01-06T01:56:53;8.73;;;1.67;;
6077;SDS011;3067;49.470;10.394;2024-01-06T01:59:22;4.40;;;1.50;;
6077;SDS011;3067;49.470;10.394;2024-01-06T02:01:49;4.03;;;1.93;;
6077;SDS011;3067;49.470;10.394;2024-01-06T02:04:16;1.90;;;1.73;;
6077;SDS011;3067;49.470;10.394;2024-01-06T02:06:43;2.40;;;1.60;;
6077;SDS011;3067;49.470;10.394;2024-01-06T02:09:10;1.70;;;1.70;;
6077;SDS011;3067;49.470;10.394;2024-01-06T02:11:37;6.80;;;1.70;;
6077;SDS011;3067;49.470;10.394;2024-01-06T02:14:04;4.20;;;2.17;;
6077;SDS011;3067;49.470;10.394;2024-01-06T02:16:33;3.27;;;1.57;;
6077;SDS011;3067;49.470;10.394;2024-01-06T02:19:00;4.60;;;2.20;;
6077;SDS011;3067;49.470;10.394;2024-01-06T02:21:27;4.93;;;2.40;;
6077;SDS011;3067;49.470;10.394;2024-01-06T02:23:56;3.70;;;2.10;;
6077;SDS011;3067;49.470;10.394;2024-01-06T02:26:23;3.37;;;2.50;;
6077;SDS011;3067;49.470;10.394;2024-01-06T02:28:50;5.40;;;2.73;;
6077;SDS011;3067;49.470;10.394;2024-01-06T02:31:17;3.77;;;3.37;;
6077;SDS011;3067;49.470;10.394;2024-01-06T02:33:44;2.90;;;2.70;;
6077;SDS011;3067;49.470;10.394;2024-01-06T02:36:11;8.57;;;3.07;;
6077;SDS011;3067;49.470;10.394;2024-01-06T02:38:38;5.57;;;2.80;;
6077;SDS011;3067;49.470;10.394;2024-01-06T02:41:06;3.50;;;2.90;;
6077;SDS011;3067;49.470;10.394;2024-01-06T02:43:33;4.07;;;2.63;;
6077;SDS011;3067;49.470;10.394;2024-01-06T02:46:00;10.73;;;4.03;;
6077;SDS011;3067;49.470;10.394;2024-01-06T02:48:27;6.50;;;4.20;;
6077;SDS011;3067;49.470;10.394;2024-01-06T02:50:55;5.40;;;3.53;;
6077;SDS011;3067;49.470;10.394;2024-01-06T02:53:22;8.20;;;3.43;;
6077;SDS011;3067;49.470;10.394;2024-01-06T02:55:49;4.80;;;3.00;;
6077;SDS011;3067;49.470;10.394;2024-01-06T02:58:18;5.10;;;3.50;;
6077;SDS011;3067;49.470;10.394;2024-01-06T03:00:45;5.57;;;3.63;;
6077;SDS011;3067;49.470;10.394;2024-01-06T03:03:11;2.70;;;2.50;;
6077;SDS011;3067;49.470;10.394;2024-01-06T03:05:38;6.60;;;3.13;;
6077;SDS011;3067;49.470;10.394;2024-01-06T03:08:05;3.97;;;3.57;;
6077;SDS011;3067;49.470;10.394;2024-01-06T03:10:32;2.83;;;2.70;;
6077;SDS011;3067;49.470;10.394;2024-01-06T03:12:59;9.90;;;3.50;;
6077;SDS011;3067;49.470;10.394;2024-01-06T03:15:28;3.37;;;3.07;;
6077;SDS011;3067;49.470;10.394;2024-01-06T03:17:55;4.30;;;3.40;;
6077;SDS011;3067;49.470;10.394;2024-01-06T03:20:22;4.80;;;3.13;;
6077;SDS011;3067;49.470;10.394;2024-01-06T03:22:49;4.97;;;3.30;;
6077;SDS011;3067;49.470;10.394;2024-01-06T03:25:16;3.47;;;2.80;;
6077;SDS011;3067;49.470;10.394;2024-01-06T03:27:43;4.93;;;3.50;;
6077;SDS011;3067;49.470;10.394;2024-01-06T03:30:10;9.00;;;4.23;;
6077;SDS011;3067;49.470;10.394;2024-01-06T03:32:40;6.37;;;4.03;;
6077;SDS011;3067;49.470;10.394;2024-01-06T03:35:07;5.67;;;4.10;;
6077;SDS011;3067;49.470;10.394;2024-01-06T03:37:34;8.83;;;5.23;;
6077;SDS011;3067;49.470;10.394;2024-01-06T03:40:01;6.10;;;4.60;;
6077;SDS011;3067;49.470;10.394;2024-01-06T03:42:28;6.00;;;4.50;;
6077;SDS011;3067;49.470;10.394;2024-01-06T03:44:56;5.80;;;3.73;;
6077;SDS011;3067;49.470;10.394;2024-01-06T03:47:23;4.13;;;3.70;;
6077;SDS011;3067;49.470;10.394;2024-01-06T03:49:51;7.57;;;4.23;;
6077;SDS011;3067;49.470;10.394;2024-01-06T03:52:18;4.07;;;3.60;;
6077;SDS011;3067;49.470;10.394;2024-01-06T03:54:45;4.67;;;3.40;;
6077;SDS011;3067;49.470;10.394;2024-01-06T03:57:12;7.97;;;3.57;;
6077;SDS011;3067;49.470;10.394;2024-01-06T03:59:38;7.07;;;3.50;;
6077;SDS011;3067;49.470;10.394;2024-01-06T04:02:06;3.70;;;3.47;;
6077;SDS011;3067;49.470;10.394;2024-01-06T04:04:33;4.73;;;3.40;;
6077;SDS011;3067;49.470;10.394;2024-01-06T04:07:01;9.13;;;3.30;;
6077;SDS011;3067;49.470;10.394;2024-01-06T04:09:28;8.40;;;3.50;;
6077;SDS011;3067;49.470;10.394;2024-01-06T04:11:55;4.23;;;3.60;;
6077;SDS011;3067;49.470;10.394;2024-01-06T04:14:22;3.73;;;3.30;;
6077;SDS011;3067;49.470;10.394;2024-01-06T04:16:49;4.43;;;3.70;;
6077;SDS011;3067;49.470;10.394;2024-01-06T04:19:18;5.20;;;4.30;;
6077;SDS011;3067;49.470;10.394;2024-01-06T04:21:45;11.53;;;4.10;;
6077;SDS011;3067;49.470;10.394;2024-01-06T04:24:14;8.10;;;3.90;;
6077;SDS011;3067;49.470;10.394;2024-01-06T04:26:41;7.23;;;3.90;;
6077;SDS011;3067;49.470;10.394;2024-01-06T04:29:10;5.10;;;4.40;;
6077;SDS011;3067;49.470;10.394;2024-01-06T04:31:37;13.83;;;3.93;;
6077;SDS011;3067;49.470;10.394;2024-01-06T04:34:04;7.73;;;4.27;;
6077;SDS011;3067;49.470;10.394;2024-01-06T04:36:31;5.40;;;3.90;;
6077;SDS011;3067;49.470;10.394;2024-01-06T04:38:58;4.37;;;3.97;;
6077;SDS011;3067;49.470;10.394;2024-01-06T04:41:26;3.90;;;3.57;;
6077;SDS011;3067;49.470;10.394;2024-01-06T04:43:53;7.97;;;5.20;;
6077;SDS011;3067;49.470;10.394;2024-01-06T04:46:20;7.80;;;4.17;;
6077;SDS011;3067;49.470;10.394;2024-01-06T04:48:47;10.30;;;4.03;;
6077;SDS011;3067;49.470;10.394;2024-01-06T04:51:14;5.57;;;4.23;;
6077;SDS011;3067;49.470;10.394;2024-01-06T04:53:41;4.20;;;3.80;;
6077;SDS011;3067;49.470;10.394;2024-01-06T04:56:08;6.23;;;4.43;;
6077;SDS011;3067;49.470;10.394;2024-01-06T04:58:37;8.00;;;3.90;;
6077;SDS011;3067;49.470;10.394;2024-01-06T05:01:04;4.60;;;4.30;;
6077;SDS011;3067;49.470;10.394;2024-01-06T05:03:31;8.93;;;4.20;;
6077;SDS011;3067;49.470;10.394;2024-01-06T05:05:58;5.00;;;4.20;;
6077;SDS011;3067;49.470;10.394;2024-01-06T05:08:24;5.03;;;4.50;;
6077;SDS011;3067;49.470;10.394;2024-01-06T05:10:52;4.43;;;3.90;;
6077;SDS011;3067;49.470;10.394;2024-01-06T05:13:19;6.40;;;3.83;;
6077;SDS011;3067;49.470;10.394;2024-01-06T05:15:48;6.97;;;4.43;;
6077;SDS011;3067;49.470;10.394;2024-01-06T05:18:15;4.83;;;4.07;;
6077;SDS011;3067;49.470;10.394;2024-01-06T05:20:42;3.83;;;3.53;;
6077;SDS011;3067;49.470;10.394;2024-01-06T05:23:09;3.20;;;3.00;;
6077;SDS011;3067;49.470;10.394;2024-01-06T05:25:36;5.07;;;3.47;;
6077;SDS011;3067;49.470;10.394;2024-01-06T05:28:03;4.80;;;3.43;;
6077;SDS011;3067;49.470;10.394;2024-01-06T05:30:30;4.10;;;3.70;;
6077;SDS011;3067;49.470;10.394;2024-01-06T05:32:59;10.53;;;4.00;;
6077;SDS011;3067;49.470;10.394;2024-01-06T05:35:27;5.60;;;3.87;;
6077;SDS011;3067;49.470;10.394;2024-01-06T05:37:54;8.13;;;3.70;;
6077;SDS011;3067;49.470;10.394;2024-01-06T05:40:22;6.73;;;4.60;;
6077;SDS011;3067;49.470;10.394;2024-01-06T05:42:49;7.50;;;4.57;;
6077;SDS011;3067;49.470;10.394;2024-01-06T05:45:17;5.53;;;4.47;;
6077;SDS011;3067;49.470;10.394;2024-01-06T05:47:44;7.10;;;4.30;;
6077;SDS011;3067;49.470;10.394;2024-01-06T05:50:14;14.50;;;5.37;;
6077;SDS011;3067;49.470;10.394;2024-01-06T05:52:42;6.20;;;4.70;;
6077;SDS011;3067;49.470;10.394;2024-01-06T05:55:09;10.43;;;5.00;;
6077;SDS011;3067;49.470;10.394;2024-01-06T05:57:36;6.57;;;4.90;;
6077;SDS011;3067;49.470;10.394;2024-01-06T06:00:03;7.03;;;4.90;;
6077;SDS011;3067;49.470;10.394;2024-01-06T06:02:34;8.43;;;5.50;;
6077;SDS011;3067;49.470;10.394;2024-01-06T06:05:01;9.93;;;6.20;;
6077;SDS011;3067;49.470;10.394;2024-01-06T06:07:29;9.57;;;5.37;;
6077;SDS011;3067;49.470;10.394;2024-01-06T06:09:56;8.57;;;6.00;;
6077;SDS011;3067;49.470;10.394;2024-01-06T06:12:23;7.97;;;5.63;;
6077;SDS011;3067;49.470;10.394;2024-01-06T06:14:51;10.67;;;6.00;;
6077;SDS011;3067;49.470;10.394;2024-01-06T06:17:18;11.87;;;6.10;;
6077;SDS011;3067;49.470;10.394;2024-01-06T06:19:45;8.83;;;5.90;;
6077;SDS011;3067;49.470;10.394;2024-01-06T06:22:12;13.93;;;6.43;;
6077;SDS011;3067;49.470;10.394;2024-01-06T06:24:40;8.20;;;6.10;;
6077;SDS011;3067;49.470;10.394;2024-01-06T06:27:08;9.87;;;6.43;;
6077;SDS011;3067;49.470;10.394;2024-01-06T06:29:35;11.77;;;6.00;;
6077;SDS011;3067;49.470;10.394;2024-01-06T06:32:03;11.80;;;6.53;;
6077;SDS011;3067;49.470;10.394;2024-01-06T06:34:30;11.40;;;7.40;;
6077;SDS011;3067;49.470;10.394;2024-01-06T06:36:57;12.37;;;6.70;;
6077;SDS011;3067;49.470;10.394;2024-01-06T06:39:24;9.43;;;6.60;;
6077;SDS011;3067;49.470;10.394;2024-01-06T06:41:53;8.50;;;6.17;;
6077;SDS011;3067;49.470;10.394;2024-01-06T06:44:20;9.00;;;6.57;;
6077;SDS011;3067;49.470;10.394;2024-01-06T06:46:48;12.70;;;6.77;;
6077;SDS011;3067;49.470;10.394;2024-01-06T06:49:15;14.80;;;6.63;;
6077;SDS011;3067;49.470;10.394;2024-01-06T06:51:42;6.80;;;6.10;;
6077;SDS011;3067;49.470;10.394;2024-01-06T06:54:12;9.80;;;6.80;;
6077;SDS011;3067;49.470;10.394;2024-01-06T06:56:39;9.40;;;6.37;;
6077;SDS011;3067;49.470;10.394;2024-01-06T06:59:08;12.80;;;6.47;;
6077;SDS011;3067;49.470;10.394;2024-01-06T07:01:35;12.80;;;7.30;;
6077;SDS011;3067;49.470;10.394;2024-01-06T07:04:02;7.63;;;6.40;;
6077;SDS011;3067;49.470;10.394;2024-01-06T07:06:29;17.87;;;6.30;;
6077;SDS011;3067;49.470;10.394;2024-01-06T07:08:57;10.23;;;6.30;;
6077;SDS011;3067;49.470;10.394;2024-01-06T07:11:25;7.87;;;5.67;;
6077;SDS011;3067;49.470;10.394;2024-01-06T07:13:52;9.83;;;6.67;;
6077;SDS011;3067;49.470;10.394;2024-01-06T07:16:21;10.90;;;6.23;;
6077;SDS011;3067;49.470;10.394;2024-01-06T07:18:48;12.20;;;6.40;;
6077;SDS011;3067;49.470;10.394;2024-01-06T07:21:15;13.73;;;7.00;;
6077;SDS011;3067;49.470;10.394;2024-01-06T07:23:42;8.80;;;6.13;;
6077;SDS011;3067;49.470;10.394;2024-01-06T07:26:09;9.70;;;6.33;;
6077;SDS011;3067;49.470;10.394;2024-01-06T07:28:36;9.97;;;6.30;;
6077;SDS011;3067;49.470;10.394;2024-01-06T07:31:03;11.10;;;6.00;;
6077;SDS011;3067;49.470;10.394;2024-01-06T07:33:32;10.60;;;6.13;;
6077;SDS011;3067;49.470;10.394;2024-01-06T07:35:59;8.97;;;5.87;;
6077;SDS011;3067;49.470;10.394;2024-01-06T07:38:26;9.93;;;5.83;;
6077;SDS011;3067;49.470;10.394;2024-01-06T07:40:53;9.30;;;5.70;;
6077;SDS011;3067;49.470;10.394;2024-01-06T07:43:20;8.97;;;6.30;;
6077;SDS011;3067;49.470;10.394;2024-01-06T07:45:47;8.10;;;5.60;;
6077;SDS011;3067;49.470;10.394;2024-01-06T07:48:16;7.60;;;5.50;;
6077;SDS011;3067;49.470;10.394;2024-01-06T07:50:44;6.93;;;5.00;;
6077;SDS011;3067;49.470;10.394;2024-01-06T07:53:11;6.97;;;5.07;;
6077;SDS011;3067;49.470;10.394;2024-01-06T07:55:39;10.60;;;5.53;;
6077;SDS011;3067;49.470;10.394;2024-01-06T07:58:06;8.13;;;5.70;;
6077;SDS011;3067;49.470;10.394;2024-01-06T08:00:33;10.63;;;5.70;;
6077;SDS011;3067;49.470;10.394;2024-01-06T08:03:00;13.00;;;6.97;;
6077;SDS011;3067;49.470;10.394;2024-01-06T08:05:31;9.80;;;5.60;;
6077;SDS011;3067;49.470;10.394;2024-01-06T08:07:59;7.10;;;5.80;;
6077;SDS011;3067;49.470;10.394;2024-01-06T08:10:26;9.50;;;6.30;;
6077;SDS011;3067;49.470;10.394;2024-01-06T08:12:53;7.97;;;5.33;;
6077;SDS011;3067;49.470;10.394;2024-01-06T08:15:20;10.30;;;5.80;;
6077;SDS011;3067;49.470;10.394;2024-01-06T08:17:47;7.60;;;6.07;;
6077;SDS011;3067;49.470;10.394;2024-01-06T08:20:14;6.43;;;5.17;;
6077;SDS011;3067;49.470;10.394;2024-01-06T08:22:41;9.23;;;5.83;;
6077;SDS011;3067;49.470;10.394;2024-01-06T08:25:10;8.77;;;5.70;;
6077;SDS011;3067;49.470;10.394;2024-01-06T08:27:38;10.57;;;5.80;;
6077;SDS011;3067;49.470;10.394;2024-01-06T08:30:06;8.23;;;5.40;;
6077;SDS011;3067;49.470;10.394;2024-01-06T08:32:34;12.37;;;5.43;;
6077;SDS011;3067;49.470;10.394;2024-01-06T08:35:01;8.50;;;5.67;;
6077;SDS011;3067;49.470;10.394;2024-01-06T08:37:28;9.13;;;6.40;;
6077;SDS011;3067;49.470;10.394;2024-01-06T08:39:55;8.60;;;5.40;;
6077;SDS011;3067;49.470;10.394;2024-01-06T08:42:24;6.20;;;5.30;;
6077;SDS011;3067;49.470;10.394;2024-01-06T08:44:51;8.43;;;5.37;;
6077;SDS011;3067;49.470;10.394;2024-01-06T08:47:18;7.20;;;5.17;;
6077;SDS011;3067;49.470;10.394;2024-01-06T08:49:45;6.77;;;5.60;;
6077;SDS011;3067;49.470;10.394;2024-01-06T08:52:12;8.13;;;5.80;;
6077;SDS011;3067;49.470;10.394;2024-01-06T08:54:38;9.30;;;5.57;;
6077;SDS011;3067;49.470;10.394;2024-01-06T08:57:05;7.03;;;4.93;;
6077;SDS011;3067;49.470;10.394;2024-01-06T08:59:34;10.20;;;5.70;;
6077;SDS011;3067;49.470;10.394;2024-01-06T09:02:01;6.70;;;4.93;;
6077;SDS011;3067;49.470;10.394;2024-01-06T09:04:28;9.60;;;5.30;;
6077;SDS011;3067;49.470;10.394;2024-01-06T09:06:55;10.33;;;6.03;;
6077;SDS011;3067;49.470;10.394;2024-01-06T09:09:22;7.53;;;5.47;;
6077;SDS011;3067;49.470;10.394;2024-01-06T09:11:49;9.10;;;5.70;;
6077;SDS011;3067;49.470;10.394;2024-01-06T09:14:16;6.23;;;5.63;;
6077;SDS011;3067;49.470;10.394;2024-01-06T09:16:46;6.90;;;5.27;;
6077;SDS011;3067;49.470;10.394;2024-01-06T09:19:12;8.10;;;5.30;;
6077;SDS011;3067;49.470;10.394;2024-01-06T09:21:40;6.07;;;5.50;;
6077;SDS011;3067;49.470;10.394;2024-01-06T09:24:07;6.90;;;5.63;;
6077;SDS011;3067;49.470;10.394;2024-01-06T09:26:34;6.73;;;5.33;;
6077;SDS011;3067;49.470;10.394;2024-01-06T09:29:01;10.03;;;5.80;;
6077;SDS011;3067;49.470;10.394;2024-01-06T09:31:29;6.47;;;5.37;;
6077;SDS011;3067;49.470;10.394;2024-01-06T09:33:59;7.67;;;6.60;;
6077;SDS011;3067;49.470;10.394;2024-01-06T09:36:27;12.00;;;5.50;;
6077;SDS011;3067;49.470;10.394;2024-01-06T09:38:55;12.00;;;5.40;;
6077;SDS011;3067;49.470;10.394;2024-01-06T09:41:22;6.17;;;5.60;;
6077;SDS011;3067;49.470;10.394;2024-01-06T09:43:49;8.87;;;5.40;;
6077;SDS011;3067;49.470;10.394;2024-01-06T09:46:18;6.93;;;5.33;;
6077;SDS011;3067;49.470;10.394;2024-01-06T09:48:51;5.73;;;5.13;;
6077;SDS011;3067;49.470;10.394;2024-01-06T09:51:20;8.57;;;5.50;;
6077;SDS011;3067;49.470;10.394;2024-01-06T09:53:48;8.43;;;5.53;;
6077;SDS011;3067;49.470;10.394;2024-01-06T09:56:23;7.30;;;5.70;;
6077;SDS011;3067;49.470;10.394;2024-01-06T09:58:51;8.80;;;5.80;;
6077;SDS011;3067;49.470;10.394;2024-01-06T10:01:18;7.97;;;6.10;;
6077;SDS011;3067;49.470;10.394;2024-01-06T10:03:46;8.63;;;6.57;;
6077;SDS011;3067;49.470;10.394;2024-01-06T10:06:13;12.33;;;6.10;;
6077;SDS011;3067;49.470;10.394;2024-01-06T10:08:43;5.83;;;5.13;;
6077;SDS011;3067;49.470;10.394;2024-01-06T10:11:10;7.03;;;5.90;;
6077;SDS011;3067;49.470;10.394;2024-01-06T10:13:37;7.53;;;5.50;;
6077;SDS011;3067;49.470;10.394;2024-01-06T10:16:04;6.40;;;5.63;;
6077;SDS011;3067;49.470;10.394;2024-01-06T10:18:32;6.83;;;5.37;;
6077;SDS011;3067;49.470;10.394;2024-01-06T10:21:00;8.60;;;5.67;;
6077;SDS011;3067;49.470;10.394;2024-01-06T10:23:30;11.43;;;8.10;;
6077;SDS011;3067;49.470;10.394;2024-01-06T10:26:00;6.27;;;5.70;;
6077;SDS011;3067;49.470;10.394;2024-01-06T10:28:28;9.27;;;5.00;;
6077;SDS011;3067;49.470;10.394;2024-01-06T10:30:55;9.53;;;5.40;;
6077;SDS011;3067;49.470;10.394;2024-01-06T10:33:24;10.30;;;5.13;;
6077;SDS011;3067;49.470;10.394;2024-01-06T10:35:52;9.47;;;4.90;;
6077;SDS011;3067;49.470;10.394;2024-01-06T10:38:20;7.20;;;4.90;;
6077;SDS011;3067;49.470;10.394;2024-01-06T10:40:57;14.63;;;5.27;;
6077;SDS011;3067;49.470;10.394;2024-01-06T10:43:26;9.30;;;5.10;;
6077;SDS011;3067;49.470;10.394;2024-01-06T10:45:55;6.73;;;4.80;;
6077;SDS011;3067;49.470;10.394;2024-01-06T10:48:24;6.47;;;5.10;;
6077;SDS011;3067;49.470;10.394;2024-01-06T10:50:51;7.77;;;5.70;;
6077;SDS011;3067;49.470;10.394;2024-01-06T10:53:20;6.07;;;5.20;;
6077;SDS011;3067;49.470;10.394;2024-01-06T10:55:49;9.87;;;4.90;;
6077;SDS011;3067;49.470;10.394;2024-01-06T10:58:17;7.53;;;4.53;;
6077;SDS011;3067;49.470;10.394;2024-01-06T11:00:46;8.17;;;4.67;;
6077;SDS011;3067;49.470;10.394;2024-01-06T11:03:14;6.00;;;5.13;;
6077;SDS011;3067;49.470;10.394;2024-01-06T11:05:41;5.27;;;4.53;;
6077;SDS011;3067;49.470;10.394;2024-01-06T11:08:08;5.20;;;4.70;;
6077;SDS011;3067;49.470;10.394;2024-01-06T11:10:36;9.10;;;5.00;;
6077;SDS011;3067;49.470;10.394;2024-01-06T11:13:06;10.80;;;5.77;;
6077;SDS011;3067;49.470;10.394;2024-01-06T11:15:40;12.50;;;5.80;;
6077;SDS011;3067;49.470;10.394;2024-01-06T11:18:10;8.57;;;6.17;;
6077;SDS011;3067;49.470;10.394;2024-01-06T11:26:56;6.37;;;4.50;;
6077;SDS011;3067;49.470;10.394;2024-01-06T11:29:23;8.50;;;4.93;;
6077;SDS011;3067;49.470;10.394;2024-01-06T11:34:51;11.70;;;4.97;;
6077;SDS011;3067;49.470;10.394;2024-01-06T11:37:20;11.70;;;4.90;;
6077;SDS011;3067;49.470;10.394;2024-01-06T11:39:50;5.20;;;4.70;;
6077;SDS011;3067;49.470;10.394;2024-01-06T11:42:18;7.73;;;5.30;;
6077;SDS011;3067;49.470;10.394;2024-01-06T11:44:49;5.73;;;5.30;;
6077;SDS011;3067;49.470;10.394;2024-01-06T11:47:17;5.97;;;5.37;;
6077;SDS011;3067;49.470;10.394;2024-01-06T11:49:48;8.93;;;5.23;;
6077;SDS011;3067;49.470;10.394;2024-01-06T11:52:21;5.40;;;4.90;;
6077;SDS011;3067;49.470;10.394;2024-01-06T11:54:50;6.47;;;5.27;;
6077;SDS011;3067;49.470;10.394;2024-01-06T11:57:18;5.87;;;5.30;;
6077;SDS011;3067;49.470;10.394;2024-01-06T11:59:46;12.80;;;5.80;;
6077;SDS011;3067;49.470;10.394;2024-01-06T12:02:17;11.10;;;5.50;;
6077;SDS011;3067;49.470;10.394;2024-01-06T12:04:47;10.80;;;5.40;;
6077;SDS011;3067;49.470;10.394;2024-01-06T12:07:17;8.40;;;5.60;;
6077;SDS011;3067;49.470;10.394;2024-01-06T12:09:45;9.77;;;5.03;;
6077;SDS011;3067;49.470;10.394;2024-01-06T12:12:14;6.67;;;4.93;;
6077;SDS011;3067;49.470;10.394;2024-01-06T12:14:42;7.00;;;5.20;;
6077;SDS011;3067;49.470;10.394;2024-01-06T12:17:09;5.40;;;4.90;;
6077;SDS011;3067;49.470;10.394;2024-01-06T12:19:38;6.47;;;5.53;;
6077;SDS011;3067;49.470;10.394;2024-01-06T12:22:07;9.73;;;5.90;;
6077;SDS011;3067;49.470;10.394;2024-01-06T12:24:37;5.87;;;5.13;;
6077;SDS011;3067;49.470;10.394;2024-01-06T12:27:06;8.60;;;5.57;;
6077;SDS011;3067;49.470;10.394;2024-01-06T12:29:37;6.20;;;5.30;;
6077;SDS011;3067;49.470;10.394;2024-01-06T12:32:05;7.00;;;5.23;;
6077;SDS011;3067;49.470;10.394;2024-01-06T12:34:32;5.90;;;5.10;;
6077;SDS011;3067;49.470;10.394;2024-01-06T12:36:59;7.77;;;5.60;;
6077;SDS011;3067;49.470;10.394;2024-01-06T12:39:28;9.10;;;6.10;;
6077;SDS011;3067;49.470;10.394;2024-01-06T12:41:57;5.90;;;5.40;;
6077;SDS011;3067;49.470;10.394;2024-01-06T12:44:25;8.50;;;5.57;;
6077;SDS011;3067;49.470;10.394;2024-01-06T12:46:52;5.70;;;5.20;;
6077;SDS011;3067;49.470;10.394;2024-01-06T12:49:20;10.33;;;5.73;;
6077;SDS011;3067;49.470;10.394;2024-01-06T12:51:47;6.80;;;5.63;;
6077;SDS011;3067;49.470;10.394;2024-01-06T12:54:14;8.50;;;5.90;;
6077;SDS011;3067;49.470;10.394;2024-01-06T12:56:41;9.50;;;5.80;;
6077;SDS011;3067;49.470;10.394;2024-01-06T12:59:09;7.60;;;5.33;;
6077;SDS011;3067;49.470;10.394;2024-01-06T13:01:36;7.67;;;5.40;;
6077;SDS011;3067;49.470;10.394;2024-01-06T13:04:04;9.73;;;6.07;;
6077;SDS011;3067;49.470;10.394;2024-01-06T13:06:31;7.20;;;5.90;;
6077;SDS011;3067;49.470;10.394;2024-01-06T13:08:59;7.13;;;5.73;;
6077;SDS011;3067;49.470;10.394;2024-01-06T13:11:27;8.07;;;5.40;;
6077;SDS011;3067;49.470;10.394;2024-01-06T13:13:54;7.53;;;5.17;;
6077;SDS011;3067;49.470;10.394;2024-01-06T13:16:23;6.47;;;5.50;;
6077;SDS011;3067;49.470;10.394;2024-01-06T13:18:50;6.30;;;5.50;;
6077;SDS011;3067;49.470;10.394;2024-01-06T13:21:16;6.17;;;5.63;;
6077;SDS011;3067;49.470;10.394;2024-01-06T13:23:44;8.07;;;6.07;;
6077;SDS011;3067;49.470;10.394;2024-01-06T13:26:11;6.33;;;5.70;;
6077;SDS011;3067;49.470;10.394;2024-01-06T13:28:38;8.83;;;6.20;;
6077;SDS011;3067;49.470;10.394;2024-01-06T13:31:05;8.43;;;6.50;;
6077;SDS011;3067;49.470;10.394;2024-01-06T13:33:33;9.47;;;7.20;;
6077;SDS011;3067;49.470;10.394;2024-01-06T13:36:00;9.20;;;6.80;;
6077;SDS011;3067;49.470;10.394;2024-01-06T13:38:28;10.97;;;7.33;;
6077;SDS011;3067;49.470;10.394;2024-01-06T13:40:55;8.10;;;6.33;;
6077;SDS011;3067;49.470;10.394;2024-01-06T13:43:22;8.63;;;5.70;;
6077;SDS011;3067;49.470;10.394;2024-01-06T13:45:49;11.53;;;6.20;;
6077;SDS011;3067;49.470;10.394;2024-01-06T13:48:16;10.00;;;7.17;;
6077;SDS011;3067;49.470;10.394;2024-01-06T13:50:45;8.57;;;5.70;;
6077;SDS011;3067;49.470;10.394;2024-01-06T13:53:12;11.67;;;7.00;;
6077;SDS011;3067;49.470;10.394;2024-01-06T13:55:40;8.57;;;6.63;;
6077;SDS011;3067;49.470;10.394;2024-01-06T13:58:07;36.13;;;15.07;;
6077;SDS011;3067;49.470;10.394;2024-01-06T14:00:35;32.50;;;12.77;;
6077;SDS011;3067;49.470;10.394;2024-01-06T14:03:02;12.13;;;7.67;;
6077;SDS011;3067;49.470;10.394;2024-01-06T14:05:31;8.10;;;6.43;;
6077;SDS011;3067;49.470;10.394;2024-01-06T14:08:01;10.43;;;7.27;;
6077;SDS011;3067;49.470;10.394;2024-01-06T14:10:28;8.07;;;6.30;;
6077;SDS011;3067;49.470;10.394;2024-01-06T14:12:56;9.90;;;6.40;;
6077;SDS011;3067;49.470;10.394;2024-01-06T14:15:23;8.53;;;6.53;;
6077;SDS011;3067;49.470;10.394;2024-01-06T14:17:51;11.17;;;7.17;;
6077;SDS011;3067;49.470;10.394;2024-01-06T14:20:18;7.43;;;5.73;;
6077;SDS011;3067;49.470;10.394;2024-01-06T14:22:45;6.67;;;5.90;;
6077;SDS011;3067;49.470;10.394;2024-01-06T14:25:14;6.40;;;5.63;;
6077;SDS011;3067;49.470;10.394;2024-01-06T14:27:43;9.90;;;5.90;;
6077;SDS011;3067;49.470;10.394;2024-01-06T14:30:10;13.77;;;6.57;;
6077;SDS011;3067;49.470;10.394;2024-01-06T14:32:38;7.83;;;6.13;;
6077;SDS011;3067;49.470;10.394;2024-01-06T14:35:06;7.10;;;6.20;;
6077;SDS011;3067;49.470;10.394;2024-01-06T14:37:36;6.20;;;5.60;;
6077;SDS011;3067;49.470;10.394;2024-01-06T14:40:04;7.57;;;6.10;;
6077;SDS011;3067;49.470;10.394;2024-01-06T14:42:34;16.40;;;9.47;;
6077;SDS011;3067;49.470;10.394;2024-01-06T14:45:01;19.57;;;10.10;;
6077;SDS011;3067;49.470;10.394;2024-01-06T14:47:28;25.03;;;13.00;;
6077;SDS011;3067;49.470;10.394;2024-01-06T14:49:57;15.50;;;9.27;;
6077;SDS011;3067;49.470;10.394;2024-01-06T14:52:24;10.97;;;7.83;;
6077;SDS011;3067;49.470;10.394;2024-01-06T14:54:52;13.03;;;8.30;;
6077;SDS011;3067;49.470;10.394;2024-01-06T14:57:19;14.00;;;8.27;;
6077;SDS011;3067;49.470;10.394;2024-01-06T14:59:48;16.50;;;9.13;;
6077;SDS011;3067;49.470;10.394;2024-01-06T15:02:15;11.43;;;7.30;;
6077;SDS011;3067;49.470;10.394;2024-01-06T15:04:42;9.53;;;7.17;;
6077;SDS011;3067;49.470;10.394;2024-01-06T15:07:09;10.83;;;6.03;;
6077;SDS011;3067;49.470;10.394;2024-01-06T15:09:38;8.97;;;6.47;;